Time;durP1;ratioP1;P1;durP2;ratioP2;P2;SDS_P1;SDS_P2;PMS_P1;PMS_P2;Temp;Humidity;BMP_temperature;BMP_pressure;BME280_temperature;BME280_humidity;BME280_pressure;Samples;Min_cycle;Max_cycle;Signal;HPM_P1;HPM_P2
2022/03/09 00:01:44;;;;;;;18.45;13.68;;;;;;;;;;4979517;28;20574;-66
2022/03/09 00:04:12;;;;;;;15.40;12.68;;;;;;;;;;4988171;28;20085;-66
2022/03/09 00:06:40;;;;;;;17.73;12.25;;;;;;;;;;4985570;28;20054;-66
2022/03/09 00:09:09;;;;;;;19.15;14.15;;;;;;;;;;4975108;28;20554;-66
2022/03/09 00:11:38;;;;;;;17.83;13.20;;;;;;;;;;4992355;28;20133;-66
2022/03/09 00:14:06;;;;;;;17.88;13.40;;;;;;;;;;4994310;28;20138;-66
2022/03/09 00:16:33;;;;;;;18.00;13.52;;;;;;;;;;4993747;28;20498;-66
2022/03/09 00:19:05;;;;;;;18.60;13.98;;;;;;;;;;4993436;28;20479;-66
2022/03/09 00:21:35;;;;;;;16.77;12.63;;;;;;;;;;4992789;28;20105;-67
2022/03/09 00:24:04;;;;;;;19.20;13.40;;;;;;;;;;4994302;28;20046;-67
2022/03/09 00:26:31;;;;;;;17.17;14.07;;;;;;;;;;4993036;28;20050;-67
2022/03/09 00:28:58;;;;;;;19.38;14.68;;;;;;;;;;4988899;28;20081;-67
2022/03/09 00:31:27;;;;;;;17.33;13.70;;;;;;;;;;4974542;28;20047;-67
2022/03/09 00:33:54;;;;;;;21.60;15.20;;;;;;;;;;4974348;28;20061;-67
2022/03/09 00:36:23;;;;;;;21.08;14.43;;;;;;;;;;4979886;28;20054;-67
2022/03/09 00:38:51;;;;;;;20.17;13.70;;;;;;;;;;4975875;28;20050;-67
2022/03/09 00:41:18;;;;;;;22.52;14.57;;;;;;;;;;4976616;28;20063;-67
2022/03/09 00:43:46;;;;;;;17.17;13.70;;;;;;;;;;4992185;28;20054;-67
2022/03/09 00:46:13;;;;;;;21.00;13.23;;;;;;;;;;4992433;28;20386;-67
2022/03/09 00:48:41;;;;;;;21.92;14.00;;;;;;;;;;4977814;28;20047;-67
2022/03/09 00:51:08;;;;;;;20.35;14.00;;;;;;;;;;4974939;28;20077;-67
2022/03/09 00:53:38;;;;;;;18.27;14.85;;;;;;;;;;4983735;28;20073;-66
2022/03/09 00:56:07;;;;;;;16.45;14.20;;;;;;;;;;4979578;28;20047;-66
2022/03/09 00:58:36;;;;;;;16.75;12.80;;;;;;;;;;4974484;28;20051;-66
2022/03/09 01:01:04;;;;;;;21.40;14.60;;;;;;;;;;4984155;28;20130;-66
2022/03/09 01:03:32;;;;;;;18.50;13.63;;;;;;;;;;4975114;28;20060;-66
2022/03/09 01:06:00;;;;;;;16.75;13.85;;;;;;;;;;4973948;28;20055;-67
2022/03/09 01:08:28;;;;;;;22.00;14.50;;;;;;;;;;4991376;28;20051;-67
2022/03/09 01:10:55;;;;;;;14.88;11.98;;;;;;;;;;4995794;28;20054;-66
2022/03/09 01:13:22;;;;;;;18.58;13.82;;;;;;;;;;4997257;28;20105;-67
2022/03/09 01:15:50;;;;;;;15.57;12.07;;;;;;;;;;4996118;28;20046;-66
2022/03/09 01:18:19;;;;;;;20.75;14.93;;;;;;;;;;4996599;28;20051;-66
2022/03/09 01:20:46;;;;;;;20.20;16.27;;;;;;;;;;4990745;28;20051;-66
2022/03/09 01:23:13;;;;;;;20.55;14.88;;;;;;;;;;4977375;28;20102;-67
2022/03/09 01:25:40;;;;;;;22.80;15.90;;;;;;;;;;4992001;28;20488;-66
2022/03/09 01:28:07;;;;;;;18.67;13.38;;;;;;;;;;4995711;28;20056;-66
2022/03/09 01:30:35;;;;;;;18.92;14.10;;;;;;;;;;4995669;28;20054;-66
2022/03/09 01:33:03;;;;;;;18.05;13.82;;;;;;;;;;4996357;28;20142;-66
2022/03/09 01:35:32;;;;;;;19.40;14.38;;;;;;;;;;4995565;28;20074;-66
2022/03/09 01:38:00;;;;;;;19.80;15.35;;;;;;;;;;4979628;28;20557;-66
2022/03/09 01:40:28;;;;;;;18.88;13.70;;;;;;;;;;4983493;28;20051;-66
2022/03/09 01:42:55;;;;;;;15.55;13.73;;;;;;;;;;4993787;28;20116;-66
2022/03/09 01:45:25;;;;;;;19.05;13.95;;;;;;;;;;5011492;28;20046;-66
2022/03/09 01:47:53;;;;;;;14.23;12.63;;;;;;;;;;5011277;28;20409;-66
2022/03/09 01:50:20;;;;;;;13.43;12.02;;;;;;;;;;5000553;28;20128;-66
2022/03/09 01:52:47;;;;;;;19.02;14.98;;;;;;;;;;4977381;28;20050;-66
2022/03/09 01:55:15;;;;;;;16.95;13.77;;;;;;;;;;4976871;28;20042;-66
2022/03/09 01:57:43;;;;;;;16.90;14.30;;;;;;;;;;4994930;28;20414;-66
2022/03/09 02:00:11;;;;;;;20.60;13.77;;;;;;;;;;4996186;28;20053;-66
2022/03/09 02:02:39;;;;;;;16.05;13.32;;;;;;;;;;4995211;28;20089;-66
2022/03/09 02:05:07;;;;;;;16.00;13.20;;;;;;;;;;4995420;28;20060;-66
2022/03/09 02:10:20;;;;;;;22.20;16.38;;;;;;;;;;4995142;28;20081;-66
2022/03/09 02:12:48;;;;;;;19.75;13.95;;;;;;;;;;4994613;28;20042;-66
2022/03/09 02:15:16;;;;;;;14.80;12.38;;;;;;;;;;4995691;28;20482;-66
2022/03/09 02:17:44;;;;;;;15.00;12.50;;;;;;;;;;4994625;28;20405;-66
2022/03/09 02:20:12;;;;;;;12.70;10.40;;;;;;;;;;4993065;28;20050;-66
2022/03/09 02:22:41;;;;;;;20.52;11.52;;;;;;;;;;4974535;28;20077;-66
2022/03/09 02:25:16;;;;;;;13.65;10.13;;;;;;;;;;4976444;28;20070;-67
2022/03/09 02:27:44;;;;;;;13.90;10.10;;;;;;;;;;4976309;28;20802;-66
2022/03/09 02:30:18;;;;;;;12.95;9.88;;;;;;;;;;4986509;28;20066;-66
2022/03/09 02:32:48;;;;;;;13.57;10.43;;;;;;;;;;4976442;28;20078;-67
2022/03/09 02:35:17;;;;;;;15.35;11.23;;;;;;;;;;4984910;28;20085;-66
2022/03/09 02:37:44;;;;;;;11.48;9.25;;;;;;;;;;4994642;28;20125;-67
2022/03/09 02:40:14;;;;;;;12.13;10.50;;;;;;;;;;4967157;28;20050;-67
2022/03/09 02:42:41;;;;;;;14.32;11.98;;;;;;;;;;4983638;28;20465;-66
2022/03/09 02:45:10;;;;;;;11.35;9.85;;;;;;;;;;4994706;28;20038;-67
2022/03/09 02:47:43;;;;;;;10.93;9.70;;;;;;;;;;4994496;28;20053;-66
2022/03/09 02:50:12;;;;;;;12.70;11.32;;;;;;;;;;4995385;28;20054;-66
2022/03/09 02:52:41;;;;;;;12.20;9.70;;;;;;;;;;4995547;28;20533;-66
2022/03/09 02:55:11;;;;;;;12.13;10.20;;;;;;;;;;4995386;28;20081;-66
2022/03/09 02:57:39;;;;;;;13.68;9.98;;;;;;;;;;4995241;28;20050;-66
2022/03/09 03:00:08;;;;;;;12.20;10.35;;;;;;;;;;4995171;28;20050;-66
2022/03/09 03:02:37;;;;;;;12.57;10.40;;;;;;;;;;4993198;28;20050;-66
2022/03/09 03:05:06;;;;;;;13.15;10.25;;;;;;;;;;4994142;28;20426;-66
2022/03/09 03:07:34;;;;;;;14.57;11.02;;;;;;;;;;4994946;28;20089;-66
2022/03/09 03:10:01;;;;;;;13.07;10.95;;;;;;;;;;4995164;28;20058;-66
2022/03/09 03:12:28;;;;;;;12.30;9.48;;;;;;;;;;4993132;28;20528;-66
2022/03/09 03:14:55;;;;;;;13.43;9.90;;;;;;;;;;4994757;28;20074;-66
2022/03/09 03:17:22;;;;;;;14.98;9.73;;;;;;;;;;4993451;28;20080;-66
2022/03/09 03:19:50;;;;;;;11.45;9.40;;;;;;;;;;4993845;28;20486;-66
2022/03/09 03:22:18;;;;;;;15.73;11.40;;;;;;;;;;4993317;28;20081;-66
2022/03/09 03:24:49;;;;;;;13.82;9.95;;;;;;;;;;4994530;28;20101;-66
2022/03/09 03:27:17;;;;;;;15.45;10.52;;;;;;;;;;4993803;28;20050;-66
2022/03/09 03:29:44;;;;;;;12.85;9.00;;;;;;;;;;4993119;28;20133;-67
2022/03/09 03:32:11;;;;;;;15.77;10.00;;;;;;;;;;4994992;28;20054;-67
2022/03/09 03:34:39;;;;;;;10.98;8.82;;;;;;;;;;4993639;28;20069;-67
2022/03/09 03:37:06;;;;;;;14.05;10.32;;;;;;;;;;4993708;28;20058;-67
2022/03/09 03:39:34;;;;;;;11.30;10.13;;;;;;;;;;4994200;28;20446;-66
2022/03/09 03:42:02;;;;;;;15.65;10.23;;;;;;;;;;4994454;28;20552;-66
2022/03/09 03:44:30;;;;;;;11.18;10.00;;;;;;;;;;4994348;28;20046;-66
2022/03/09 03:46:58;;;;;;;11.80;9.65;;;;;;;;;;4993492;28;20054;-66
2022/03/09 03:49:26;;;;;;;14.50;11.32;;;;;;;;;;4993437;28;20096;-66
2022/03/09 03:51:56;;;;;;;17.00;10.05;;;;;;;;;;4994294;28;20050;-66
2022/03/09 03:54:23;;;;;;;12.90;10.68;;;;;;;;;;4993059;28;20046;-66
2022/03/09 03:56:50;;;;;;;12.63;10.82;;;;;;;;;;4993928;28;20069;-66
2022/03/09 03:59:18;;;;;;;13.85;10.73;;;;;;;;;;4993292;28;20042;-66
2022/03/09 04:01:46;;;;;;;10.07;8.80;;;;;;;;;;4994171;28;20445;-67
2022/03/09 04:04:14;;;;;;;10.32;9.23;;;;;;;;;;4993211;28;20046;-66
2022/03/09 04:06:42;;;;;;;12.38;9.23;;;;;;;;;;4992872;28;20049;-66
2022/03/09 04:09:09;;;;;;;13.88;10.25;;;;;;;;;;4992895;28;20046;-66
2022/03/09 04:11:36;;;;;;;14.07;8.88;;;;;;;;;;4992639;28;20046;-66
2022/03/09 04:14:04;;;;;;;14.10;9.75;;;;;;;;;;4977092;28;20133;-66
2022/03/09 04:16:32;;;;;;;12.15;9.88;;;;;;;;;;4993651;28;20050;-66
2022/03/09 04:19:00;;;;;;;12.23;9.40;;;;;;;;;;4994464;28;20088;-67
2022/03/09 04:21:28;;;;;;;15.98;11.20;;;;;;;;;;4993862;28;20050;-66
2022/03/09 04:23:56;;;;;;;11.57;9.73;;;;;;;;;;4993805;28;20042;-66
2022/03/09 04:26:23;;;;;;;13.95;9.60;;;;;;;;;;4994097;28;20105;-66
2022/03/09 04:28:50;;;;;;;13.05;9.48;;;;;;;;;;4992086;28;20074;-66
2022/03/09 04:31:18;;;;;;;11.43;10.00;;;;;;;;;;4962024;28;20137;-66
2022/03/09 04:33:46;;;;;;;13.32;9.35;;;;;;;;;;4976826;28;20057;-66
2022/03/09 04:36:14;;;;;;;15.77;10.77;;;;;;;;;;4976777;28;20061;-66
2022/03/09 04:38:41;;;;;;;11.35;9.07;;;;;;;;;;4984550;28;20141;-66
2022/03/09 04:41:10;;;;;;;10.68;9.10;;;;;;;;;;4987442;28;20133;-66
2022/03/09 04:43:38;;;;;;;12.20;9.65;;;;;;;;;;4974605;28;20054;-66
2022/03/09 04:46:05;;;;;;;11.60;8.50;;;;;;;;;;4981477;28;20409;-66
2022/03/09 04:48:33;;;;;;;12.77;9.68;;;;;;;;;;4980330;28;20585;-66
2022/03/09 04:51:02;;;;;;;14.23;10.20;;;;;;;;;;4997254;28;20058;-66
2022/03/09 04:53:30;;;;;;;14.07;8.60;;;;;;;;;;4997615;28;20537;-66
2022/03/09 04:55:58;;;;;;;12.18;10.95;;;;;;;;;;4997031;28;20078;-66
2022/03/09 04:58:27;;;;;;;10.57;9.48;;;;;;;;;;4997844;28;20074;-66
2022/03/09 05:00:54;;;;;;;11.88;9.73;;;;;;;;;;4983726;28;20043;-66
2022/03/09 05:03:22;;;;;;;12.20;9.93;;;;;;;;;;4985722;28;20058;-66
2022/03/09 05:05:49;;;;;;;13.50;10.20;;;;;;;;;;5012486;28;20050;-66
2022/03/09 05:08:17;;;;;;;15.43;10.48;;;;;;;;;;4997179;28;20129;-66
2022/03/09 05:10:44;;;;;;;11.90;9.80;;;;;;;;;;4994388;28;20109;-66
2022/03/09 05:13:12;;;;;;;20.35;10.38;;;;;;;;;;4977616;28;20141;-66
2022/03/09 05:15:40;;;;;;;14.25;10.65;;;;;;;;;;4993126;28;20077;-66
2022/03/09 05:18:07;;;;;;;15.85;10.85;;;;;;;;;;5011979;28;20050;-67
2022/03/09 05:20:35;;;;;;;13.32;10.10;;;;;;;;;;5012170;28;20070;-66
2022/03/09 05:23:02;;;;;;;12.00;9.85;;;;;;;;;;5012513;28;20054;-66
2022/03/09 05:25:29;;;;;;;14.35;11.63;;;;;;;;;;5012209;28;20046;-66
2022/03/09 05:27:58;;;;;;;13.18;10.27;;;;;;;;;;5012551;28;20137;-66
2022/03/09 05:30:26;;;;;;;13.18;10.88;;;;;;;;;;5012023;28;20057;-66
2022/03/09 05:32:53;;;;;;;15.00;12.32;;;;;;;;;;4996660;28;20050;-66
2022/03/09 05:35:20;;;;;;;18.48;9.77;;;;;;;;;;4995829;28;20039;-66
2022/03/09 05:37:48;;;;;;;13.57;10.13;;;;;;;;;;5011576;28;20048;-66
2022/03/09 05:40:16;;;;;;;14.15;10.15;;;;;;;;;;4995508;28;20129;-66
2022/03/09 05:42:43;;;;;;;15.82;10.07;;;;;;;;;;4989286;28;20043;-66
2022/03/09 05:45:17;;;;;;;18.20;10.77;;;;;;;;;;4987762;28;20054;-66
2022/03/09 05:47:52;;;;;;;19.33;12.25;;;;;;;;;;4992202;28;20305;-67
2022/03/09 05:50:21;;;;;;;14.93;10.82;;;;;;;;;;4984330;28;20056;-67
2022/03/09 05:52:49;;;;;;;11.88;10.18;;;;;;;;;;4979629;28;20546;-68
2022/03/09 05:55:17;;;;;;;12.25;9.50;;;;;;;;;;4991317;28;20046;-68
2022/03/09 05:57:46;;;;;;;14.43;10.32;;;;;;;;;;4979861;28;20051;-68
2022/03/09 06:00:14;;;;;;;12.45;10.05;;;;;;;;;;4979782;28;20565;-68
2022/03/09 06:02:42;;;;;;;11.75;9.32;;;;;;;;;;4981793;28;20043;-67
2022/03/09 06:05:10;;;;;;;12.88;9.93;;;;;;;;;;4983287;28;20061;-67
2022/03/09 06:07:39;;;;;;;12.25;9.90;;;;;;;;;;4994330;28;20561;-67
2022/03/09 06:10:09;;;;;;;15.65;10.95;;;;;;;;;;4997888;28;20065;-67
2022/03/09 06:12:37;;;;;;;14.32;11.40;;;;;;;;;;4989039;28;20058;-67
2022/03/09 06:15:05;;;;;;;14.52;11.98;;;;;;;;;;4990305;28;20058;-67
2022/03/09 06:17:33;;;;;;;20.80;10.93;;;;;;;;;;4973392;28;20060;-66
2022/03/09 06:20:01;;;;;;;14.55;11.23;;;;;;;;;;4982548;28;20101;-67
2022/03/09 06:22:29;;;;;;;12.60;9.85;;;;;;;;;;4990455;28;20051;-66
2022/03/09 06:24:57;;;;;;;12.13;10.20;;;;;;;;;;4994158;28;20532;-67
2022/03/09 06:27:24;;;;;;;13.82;9.68;;;;;;;;;;4983789;28;20045;-67
2022/03/09 06:29:55;;;;;;;13.23;9.48;;;;;;;;;;4981724;28;20042;-67
2022/03/09 06:32:23;;;;;;;13.05;9.38;;;;;;;;;;4981052;28;20093;-67
2022/03/09 06:34:53;;;;;;;17.90;11.15;;;;;;;;;;4976182;28;20133;-67
2022/03/09 06:37:20;;;;;;;13.55;11.43;;;;;;;;;;4988906;28;20042;-68
2022/03/09 06:39:48;;;;;;;11.70;10.32;;;;;;;;;;4987011;28;20050;-67
2022/03/09 06:42:15;;;;;;;12.10;10.55;;;;;;;;;;4990308;28;20125;-67
2022/03/09 06:44:42;;;;;;;12.63;11.32;;;;;;;;;;4982818;28;20474;-68
2022/03/09 06:47:10;;;;;;;11.93;10.73;;;;;;;;;;4985448;28;20046;-68
2022/03/09 06:49:37;;;;;;;17.50;11.00;;;;;;;;;;4990134;28;20389;-68
2022/03/09 06:52:06;;;;;;;15.10;11.88;;;;;;;;;;4989777;28;20105;-67
2022/03/09 06:54:35;;;;;;;16.17;11.30;;;;;;;;;;4988340;28;20056;-68
2022/03/09 06:57:02;;;;;;;18.25;12.77;;;;;;;;;;5003216;28;20042;-68
2022/03/09 06:59:30;;;;;;;14.02;11.75;;;;;;;;;;4990869;28;20502;-67
2022/03/09 07:02:04;;;;;;;19.00;12.68;;;;;;;;;;4986685;28;20069;-66
2022/03/09 07:04:34;;;;;;;12.73;10.48;;;;;;;;;;4983939;28;20094;-64
2022/03/09 07:07:01;;;;;;;17.92;11.80;;;;;;;;;;4984117;28;20054;-65
2022/03/09 07:09:29;;;;;;;25.98;11.93;;;;;;;;;;4991385;28;20046;-64
2022/03/09 07:12:06;;;;;;;14.43;10.95;;;;;;;;;;4989723;28;20043;-62
2022/03/09 07:14:58;;;;;;;20.98;12.25;;;;;;;;;;4981130;28;20053;-64
2022/03/09 07:17:25;;;;;;;17.23;11.18;;;;;;;;;;4974302;28;20130;-66
2022/03/09 07:19:54;;;;;;;21.90;11.30;;;;;;;;;;4978100;28;20043;-64
2022/03/09 07:22:22;;;;;;;24.50;11.80;;;;;;;;;;4982707;28;20487;-65
2022/03/09 07:24:51;;;;;;;19.25;10.95;;;;;;;;;;4973815;28;20066;-65
2022/03/09 07:27:18;;;;;;;22.25;10.80;;;;;;;;;;4973879;28;20417;-64
2022/03/09 07:29:46;;;;;;;13.90;10.85;;;;;;;;;;4974093;28;20047;-64
2022/03/09 07:32:15;;;;;;;39.70;13.15;;;;;;;;;;4972197;28;20051;-64
2022/03/09 07:35:03;;;;;;;21.75;10.60;;;;;;;;;;4987089;28;20045;-64
2022/03/09 07:37:30;;;;;;;14.95;11.00;;;;;;;;;;4992956;28;20080;-64
2022/03/09 07:39:59;;;;;;;17.10;12.20;;;;;;;;;;4991517;28;20042;-66
2022/03/09 07:42:27;;;;;;;14.32;12.68;;;;;;;;;;4992117;28;20077;-67
2022/03/09 07:44:54;;;;;;;16.77;10.05;;;;;;;;;;4989777;28;20418;-67
2022/03/09 07:47:22;;;;;;;15.18;11.00;;;;;;;;;;4962827;28;20427;-67
2022/03/09 07:49:49;;;;;;;19.50;11.93;;;;;;;;;;4992497;28;20050;-66
2022/03/09 07:52:17;;;;;;;12.98;10.20;;;;;;;;;;4990503;28;20042;-66
2022/03/09 07:54:45;;;;;;;19.73;10.90;;;;;;;;;;4992249;28;20486;-66
2022/03/09 07:57:12;;;;;;;12.45;10.32;;;;;;;;;;4993860;28;20060;-66
2022/03/09 07:59:40;;;;;;;20.35;11.88;;;;;;;;;;4993006;28;20050;-66
2022/03/09 08:02:09;;;;;;;15.23;11.55;;;;;;;;;;4994544;28;20052;-66
2022/03/09 08:04:37;;;;;;;15.32;11.50;;;;;;;;;;4988742;28;20058;-66
2022/03/09 08:07:08;;;;;;;14.90;11.25;;;;;;;;;;4985510;28;20085;-66
2022/03/09 08:09:36;;;;;;;12.60;11.27;;;;;;;;;;5008543;28;20061;-66
2022/03/09 08:12:05;;;;;;;21.83;14.05;;;;;;;;;;5007975;28;20054;-66
2022/03/09 08:14:33;;;;;;;19.02;13.98;;;;;;;;;;4982719;28;20572;-68
2022/03/09 08:17:00;;;;;;;18.40;13.57;;;;;;;;;;4990533;28;20145;-69
2022/03/09 08:19:28;;;;;;;19.88;15.20;;;;;;;;;;4987643;28;20497;-68
2022/03/09 08:21:55;;;;;;;18.92;14.02;;;;;;;;;;5002319;28;20062;-68
2022/03/09 08:24:23;;;;;;;26.45;17.10;;;;;;;;;;4987347;28;20058;-68
2022/03/09 08:26:51;;;;;;;21.02;15.95;;;;;;;;;;4990109;28;20417;-67
2022/03/09 08:29:18;;;;;;;18.38;14.75;;;;;;;;;;4981545;28;20077;-68
2022/03/09 08:31:45;;;;;;;19.50;15.60;;;;;;;;;;4982846;28;20062;-68
2022/03/09 08:34:13;;;;;;;22.55;17.10;;;;;;;;;;4988906;28;20240;-68
2022/03/09 08:36:41;;;;;;;21.92;15.88;;;;;;;;;;4988125;28;20142;-68
2022/03/09 08:39:09;;;;;;;21.83;15.73;;;;;;;;;;4990845;28;20575;-68
2022/03/09 08:41:37;;;;;;;23.80;17.10;;;;;;;;;;4992613;28;20050;-67
2022/03/09 08:44:24;;;;;;;25.60;18.17;;;;;;;;;;4990704;28;20828;-68
2022/03/09 08:46:57;;;;;;;19.50;15.70;;;;;;;;;;4989310;28;20050;-69
2022/03/09 08:49:26;;;;;;;22.95;15.25;;;;;;;;;;4992012;28;20062;-68
2022/03/09 08:51:54;;;;;;;20.70;16.38;;;;;;;;;;4990815;28;20485;-68
2022/03/09 08:54:21;;;;;;;23.60;15.13;;;;;;;;;;4989117;28;20054;-68
2022/03/09 08:56:49;;;;;;;17.60;15.80;;;;;;;;;;4988590;28;20134;-68
2022/03/09 08:59:17;;;;;;;23.85;18.27;;;;;;;;;;4990519;28;20058;-68
2022/03/09 09:01:46;;;;;;;20.50;16.75;;;;;;;;;;4992213;28;20054;-68
2022/03/09 09:04:20;;;;;;;27.23;18.55;;;;;;;;;;4983179;28;20051;-68
2022/03/09 09:06:48;;;;;;;25.77;17.58;;;;;;;;;;4991976;28;20062;-69
2022/03/09 09:09:17;;;;;;;25.90;18.35;;;;;;;;;;4990946;28;20046;-69
2022/03/09 09:11:45;;;;;;;21.40;16.80;;;;;;;;;;4992219;28;20121;-69
2022/03/09 09:14:13;;;;;;;21.95;17.38;;;;;;;;;;4984472;28;20065;-68
2022/03/09 09:16:47;;;;;;;28.90;17.05;;;;;;;;;;4990284;28;20054;-67
2022/03/09 09:19:15;;;;;;;22.70;18.58;;;;;;;;;;4992002;28;20074;-67
2022/03/09 09:21:45;;;;;;;30.95;19.13;;;;;;;;;;4988408;28;20081;-67
2022/03/09 09:24:12;;;;;;;23.52;18.27;;;;;;;;;;4988572;28;20058;-66
2022/03/09 09:26:44;;;;;;;22.42;19.85;;;;;;;;;;4976518;28;20141;-67
2022/03/09 09:29:20;;;;;;;25.58;20.02;;;;;;;;;;4974815;28;20410;-67
2022/03/09 09:31:47;;;;;;;25.95;22.70;;;;;;;;;;4976487;28;20043;-67
2022/03/09 09:34:16;;;;;;;27.23;20.63;;;;;;;;;;4978308;28;20101;-68
2022/03/09 09:36:47;;;;;;;26.08;22.17;;;;;;;;;;4977280;28;20059;-67
2022/03/09 09:39:16;;;;;;;26.92;22.17;;;;;;;;;;4977838;28;20125;-67
2022/03/09 09:41:51;;;;;;;24.30;20.08;;;;;;;;;;4977407;28;20034;-67
2022/03/09 09:44:21;;;;;;;25.58;19.02;;;;;;;;;;4977216;28;20053;-67
2022/03/09 09:46:51;;;;;;;32.33;21.65;;;;;;;;;;4977881;28;20051;-66
2022/03/09 09:49:24;;;;;;;25.63;20.75;;;;;;;;;;4984990;28;20125;-67
2022/03/09 09:51:53;;;;;;;26.52;21.48;;;;;;;;;;4991530;28;20100;-67
2022/03/09 09:54:23;;;;;;;25.77;19.85;;;;;;;;;;4988335;28;20085;-67
2022/03/09 09:56:54;;;;;;;37.38;21.92;;;;;;;;;;4979519;28;20043;-68
2022/03/09 09:59:21;;;;;;;26.05;22.17;;;;;;;;;;4993818;28;20058;-67
2022/03/09 10:01:49;;;;;;;26.63;23.17;;;;;;;;;;4981670;28;20081;-67
2022/03/09 10:04:17;;;;;;;26.50;23.38;;;;;;;;;;4984269;28;20055;-68
2022/03/09 10:06:44;;;;;;;25.23;20.48;;;;;;;;;;4997475;28;20062;-67
2022/03/09 10:09:13;;;;;;;25.10;20.58;;;;;;;;;;4992981;28;20093;-67
2022/03/09 10:11:51;;;;;;;27.13;23.10;;;;;;;;;;4997188;28;20410;-68
2022/03/09 10:14:44;;;;;;;23.98;21.20;;;;;;;;;;4995720;28;20510;-68
2022/03/09 10:17:14;;;;;;;25.38;20.92;;;;;;;;;;4995897;28;20043;-68
2022/03/09 10:19:52;;;;;;;23.13;20.55;;;;;;;;;;4996117;28;20054;-68
2022/03/09 10:22:30;;;;;;;20.90;18.70;;;;;;;;;;4994572;28;20046;-68
2022/03/09 10:25:14;;;;;;;26.73;22.83;;;;;;;;;;4995979;28;20038;-68
2022/03/09 10:27:43;;;;;;;27.02;20.60;;;;;;;;;;4995287;28;20058;-68
2022/03/09 10:30:19;;;;;;;24.73;20.75;;;;;;;;;;4995684;28;20137;-68
2022/03/09 10:32:46;;;;;;;20.90;18.65;;;;;;;;;;4995272;28;20057;-68
2022/03/09 10:35:41;;;;;;;25.92;18.92;;;;;;;;;;4995210;28;20075;-68
2022/03/09 10:38:22;;;;;;;23.87;21.03;;;;;;;;;;4981982;28;20042;-68
2022/03/09 10:40:56;;;;;;;26.10;20.20;;;;;;;;;;4976949;28;20061;-68
2022/03/09 10:43:28;;;;;;;22.52;20.23;;;;;;;;;;4976275;28;20051;-68
2022/03/09 10:46:12;;;;;;;21.50;18.23;;;;;;;;;;4992986;28;20096;-68
2022/03/09 10:48:54;;;;;;;26.75;21.48;;;;;;;;;;4978366;28;20157;-68
2022/03/09 10:51:43;;;;;;;23.98;20.40;;;;;;;;;;4995116;28;20133;-68
2022/03/09 10:54:29;;;;;;;23.30;20.73;;;;;;;;;;4995217;28;20145;-68
2022/03/09 10:57:08;;;;;;;23.95;20.20;;;;;;;;;;4995135;28;20051;-68
2022/03/09 10:59:52;;;;;;;23.00;20.00;;;;;;;;;;4990940;28;20499;-68
2022/03/09 11:02:29;;;;;;;23.42;18.75;;;;;;;;;;4974422;28;20054;-68
2022/03/09 11:05:27;;;;;;;33.75;21.27;;;;;;;;;;4974287;28;20087;-68
2022/03/09 11:08:10;;;;;;;21.65;19.35;;;;;;;;;;4975090;28;20055;-68
2022/03/09 11:10:37;;;;;;;23.55;19.92;;;;;;;;;;4976142;28;20097;-68
2022/03/09 11:13:05;;;;;;;27.67;20.52;;;;;;;;;;4974320;28;20137;-68
2022/03/09 11:15:33;;;;;;;25.10;20.15;;;;;;;;;;4980325;28;20089;-68
2022/03/09 11:18:00;;;;;;;22.63;20.25;;;;;;;;;;4987019;28;20105;-68
2022/03/09 11:20:28;;;;;;;23.02;20.50;;;;;;;;;;4975660;28;20046;-68
2022/03/09 11:22:56;;;;;;;22.13;18.17;;;;;;;;;;4983908;28;20042;-68
2022/03/09 11:25:24;;;;;;;31.60;18.45;;;;;;;;;;4978823;28;20078;-68
2022/03/09 11:27:55;;;;;;;21.58;18.50;;;;;;;;;;4975394;28;20521;-68
2022/03/09 11:30:24;;;;;;;27.95;21.45;;;;;;;;;;4975478;28;20053;-68
2022/03/09 11:32:55;;;;;;;22.13;19.73;;;;;;;;;;4975245;28;20134;-68
2022/03/09 11:35:40;;;;;;;25.13;21.30;;;;;;;;;;4974405;28;20051;-68
2022/03/09 11:38:32;;;;;;;29.65;20.17;;;;;;;;;;4989886;28;20133;-68
2022/03/09 11:41:17;;;;;;;23.30;20.80;;;;;;;;;;4975681;28;20055;-68
2022/03/09 11:43:45;;;;;;;22.58;19.90;;;;;;;;;;4975189;28;20050;-68
2022/03/09 11:46:13;;;;;;;21.25;18.92;;;;;;;;;;4975212;28;20069;-68
2022/03/09 11:49:00;;;;;;;24.50;20.67;;;;;;;;;;4986983;28;20046;-68
2022/03/09 11:51:29;;;;;;;23.35;20.08;;;;;;;;;;4993044;28;20078;-68
2022/03/09 11:53:57;;;;;;;24.70;19.33;;;;;;;;;;4980088;28;20058;-68
2022/03/09 11:56:37;;;;;;;25.30;20.27;;;;;;;;;;4993799;28;20105;-68
2022/03/09 11:59:20;;;;;;;21.85;19.55;;;;;;;;;;4992881;28;20052;-68
2022/03/09 12:02:07;;;;;;;25.65;19.50;;;;;;;;;;4990918;28;20050;-68
2022/03/09 12:04:40;;;;;;;21.15;19.00;;;;;;;;;;4986173;28;20125;-68
2022/03/09 12:07:12;;;;;;;21.83;19.42;;;;;;;;;;4979365;28;20053;-67
2022/03/09 12:10:00;;;;;;;22.52;20.10;;;;;;;;;;4984493;28;20055;-67
2022/03/09 12:12:30;;;;;;;22.25;18.92;;;;;;;;;;4987651;28;20046;-67
2022/03/09 12:15:12;;;;;;;20.15;18.08;;;;;;;;;;4983564;28;20101;-67
2022/03/09 12:17:44;;;;;;;22.35;18.17;;;;;;;;;;4979189;28;20065;-67
2022/03/09 12:20:15;;;;;;;24.40;19.33;;;;;;;;;;4985908;28;20070;-67
2022/03/09 12:22:55;;;;;;;27.65;18.75;;;;;;;;;;4982587;28;20138;-67
2022/03/09 12:25:45;;;;;;;22.38;18.08;;;;;;;;;;4988592;28;20125;-67
2022/03/09 12:28:24;;;;;;;31.52;20.10;;;;;;;;;;4993484;28;20149;-67
2022/03/09 12:30:53;;;;;;;21.02;17.85;;;;;;;;;;4993317;28;20050;-68
2022/03/09 12:33:25;;;;;;;24.63;18.15;;;;;;;;;;4992449;28;20545;-68
2022/03/09 12:36:14;;;;;;;22.30;18.65;;;;;;;;;;4992066;28;20134;-68
2022/03/09 12:38:57;;;;;;;32.58;20.05;;;;;;;;;;4992630;28;20484;-68
2022/03/09 12:41:32;;;;;;;33.10;19.85;;;;;;;;;;4991963;28;20506;-68
2022/03/09 12:44:03;;;;;;;28.17;18.42;;;;;;;;;;4992579;28;20184;-68
2022/03/09 12:46:32;;;;;;;21.98;19.13;;;;;;;;;;4991625;28;20418;-68
2022/03/09 12:49:12;;;;;;;24.60;19.67;;;;;;;;;;4992174;28;20085;-70
2022/03/09 12:51:52;;;;;;;24.00;19.30;;;;;;;;;;4993854;28;20050;-68
2022/03/09 12:54:33;;;;;;;19.08;16.80;;;;;;;;;;4988625;28;20514;-68
2022/03/09 12:57:23;;;;;;;22.15;18.73;;;;;;;;;;4974928;28;20094;-68
2022/03/09 12:59:58;;;;;;;23.65;17.08;;;;;;;;;;4974615;28;20059;-68
2022/03/09 13:02:44;;;;;;;23.20;18.85;;;;;;;;;;4974962;28;20047;-68
2022/03/09 13:05:14;;;;;;;19.48;17.35;;;;;;;;;;4974062;28;20109;-67
2022/03/09 13:08:00;;;;;;;22.75;19.65;;;;;;;;;;4978400;28;20410;-67
2022/03/09 13:10:30;;;;;;;22.85;18.08;;;;;;;;;;4982252;28;20050;-68
2022/03/09 13:13:00;;;;;;;26.98;18.23;;;;;;;;;;4996045;28;20057;-67
2022/03/09 13:15:46;;;;;;;24.55;17.77;;;;;;;;;;4997333;28;20046;-68
2022/03/09 13:18:25;;;;;;;26.27;18.30;;;;;;;;;;4997299;28;20116;-68
2022/03/09 13:20:54;;;;;;;25.05;18.75;;;;;;;;;;4997276;28;20072;-69
2022/03/09 13:23:29;;;;;;;21.92;17.20;;;;;;;;;;4991588;28;20103;-68
2022/03/09 13:26:16;;;;;;;26.33;20.88;;;;;;;;;;4995498;28;20046;-68
2022/03/09 13:28:48;;;;;;;19.80;17.63;;;;;;;;;;4996345;28;20051;-68
2022/03/09 13:31:17;;;;;;;24.50;18.63;;;;;;;;;;4989015;28;20057;-68
2022/03/09 13:33:51;;;;;;;26.58;17.52;;;;;;;;;;4992314;28;20137;-69
2022/03/09 13:36:20;;;;;;;22.27;18.15;;;;;;;;;;4994860;28;20528;-68
2022/03/09 13:39:00;;;;;;;30.58;17.38;;;;;;;;;;4994541;28;20047;-68
2022/03/09 13:41:36;;;;;;;22.63;17.70;;;;;;;;;;4993067;28;20501;-68
2022/03/09 13:44:04;;;;;;;20.02;17.00;;;;;;;;;;4995684;28;20053;-69
2022/03/09 13:46:32;;;;;;;24.77;17.20;;;;;;;;;;4992320;28;20054;-68
2022/03/09 13:49:13;;;;;;;19.88;17.38;;;;;;;;;;4991784;28;20050;-69
2022/03/09 13:51:41;;;;;;;19.98;16.33;;;;;;;;;;4992478;28;20505;-68
2022/03/09 13:54:14;;;;;;;23.05;15.98;;;;;;;;;;4995212;28;20498;-68
2022/03/09 13:56:42;;;;;;;21.27;16.08;;;;;;;;;;4992534;28;20130;-68
2022/03/09 13:59:09;;;;;;;20.92;16.83;;;;;;;;;;4993647;28;20125;-68
2022/03/09 14:01:38;;;;;;;27.90;17.85;;;;;;;;;;4992835;28;20041;-68
2022/03/09 14:04:11;;;;;;;20.73;16.00;;;;;;;;;;4994989;28;20042;-68
2022/03/09 14:06:40;;;;;;;19.30;15.68;;;;;;;;;;4990811;28;20046;-68
2022/03/09 14:09:13;;;;;;;29.45;15.18;;;;;;;;;;4994722;28;20122;-68
2022/03/09 14:11:44;;;;;;;23.83;16.83;;;;;;;;;;4994107;28;20422;-68
2022/03/09 14:14:18;;;;;;;28.98;15.75;;;;;;;;;;4994584;28;20069;-70
2022/03/09 14:16:47;;;;;;;;;;;;;;;;;;4995240;28;20046;-68
2022/03/09 14:19:20;;;;;;;22.83;15.68;;;;;;;;;;4993403;28;19964;-68
2022/03/09 14:21:52;;;;;;;25.83;14.38;;;;;;;;;;4994434;28;20449;-68
2022/03/09 14:24:23;;;;;;;18.30;15.15;;;;;;;;;;4995506;28;20097;-68
2022/03/09 14:26:52;;;;;;;19.00;14.25;;;;;;;;;;4994917;28;20505;-70
2022/03/09 14:29:23;;;;;;;26.45;14.35;;;;;;;;;;4993375;28;20046;-69
2022/03/09 14:31:55;;;;;;;19.70;14.60;;;;;;;;;;4986061;28;20054;-67
2022/03/09 14:34:23;;;;;;;18.27;15.35;;;;;;;;;;4984353;28;20051;-67
2022/03/09 14:36:53;;;;;;;18.42;15.75;;;;;;;;;;4975870;28;20100;-68
2022/03/09 14:39:25;;;;;;;19.42;12.68;;;;;;;;;;4994407;28;20066;-67
2022/03/09 14:41:55;;;;;;;17.02;13.60;;;;;;;;;;4995527;28;20050;-68